Time;durP1;ratioP1;P1;durP2;ratioP2;P2;SDS_P1;SDS_P2;PMS_P1;PMS_P2;Temp;Humidity;BMP_temperature;BMP_pressure;BME280_temperature;BME280_humidity;BME280_pressure;Samples;Min_cycle;Max_cycle;Signal;HPM_P1;HPM_P2
2021/12/18 00:02:08;;;;;;;26.70;15.37;;;5.30;99.90;;;;;;5061444;28;20391;-80
2021/12/18 00:04:53;;;;;;;27.67;16.50;;;5.10;99.90;;;;;;5061015;28;20415;-81
2021/12/18 00:07:37;;;;;;;26.00;15.93;;;5.20;99.90;;;;;;5046096;28;20526;-80
2021/12/18 00:10:23;;;;;;;28.80;17.70;;;5.30;99.90;;;;;;5061377;28;20368;-81
2021/12/18 00:13:07;;;;;;;34.20;19.17;;;5.30;99.90;;;;;;5061266;28;20401;-81
2021/12/18 00:15:52;;;;;;;30.77;16.60;;;5.20;99.90;;;;;;5061432;28;20804;-81
2021/12/18 00:18:36;;;;;;;25.17;16.90;;;5.20;99.90;;;;;;5061223;28;20394;-80
2021/12/18 00:21:21;;;;;;;24.07;14.83;;;5.30;99.90;;;;;;5061165;28;20905;-80
2021/12/18 00:24:07;;;;;;;34.57;15.43;;;5.30;99.90;;;;;;5060583;28;20384;-80
2021/12/18 00:26:51;;;;;;;27.53;15.60;;;5.40;99.90;;;;;;5060857;28;20436;-80
2021/12/18 00:29:36;;;;;;;28.93;16.83;;;5.50;99.90;;;;;;5060710;28;20436;-80
2021/12/18 00:32:19;;;;;;;24.33;14.87;;;5.50;99.90;;;;;;5060615;28;20723;-81
2021/12/18 00:35:04;;;;;;;22.63;13.53;;;5.50;99.90;;;;;;5045346;28;20380;-81
2021/12/18 00:37:48;;;;;;;34.23;15.97;;;5.50;99.90;;;;;;5046328;28;20823;-81
2021/12/18 00:43:34;;;;;;;34.13;16.10;;;5.40;99.90;;;;;;5061859;28;20364;-81
2021/12/18 00:46:18;;;;;;;31.17;16.33;;;5.50;99.90;;;;;;5061646;28;20367;-81
2021/12/18 00:49:05;;;;;;;31.90;15.53;;;5.50;99.90;;;;;;5053832;28;20424;-79
2021/12/18 00:51:49;;;;;;;27.20;18.17;;;5.50;99.90;;;;;;5075927;28;20393;-79
2021/12/18 00:54:34;;;;;;;25.43;14.97;;;5.50;99.90;;;;;;5077507;28;20413;-79
2021/12/18 00:57:20;;;;;;;25.07;13.93;;;5.50;99.90;;;;;;5077222;28;20426;-79
2021/12/18 01:00:08;;;;;;;34.40;17.83;;;5.50;99.90;;;;;;5077317;28;20390;-80
2021/12/18 01:02:58;;;;;;;20.83;13.47;;;5.50;99.90;;;;;;5065322;28;20356;-80
2021/12/18 01:05:42;;;;;;;21.37;12.77;;;5.50;99.90;;;;;;5060680;28;20432;-81
2021/12/18 01:08:26;;;;;;;20.53;13.07;;;5.40;99.90;;;;;;5060036;28;20412;-81
2021/12/18 01:11:30;;;;;;;26.30;13.43;;;5.40;99.90;;;;;;5060811;28;20926;-81
2021/12/18 01:23:22;;;;;;;26.57;15.00;;;4.90;99.90;;;;;;5065432;28;20372;-80
2021/12/18 01:26:06;;;;;;;26.27;14.13;;;4.70;99.90;;;;;;5049446;28;20470;-79
2021/12/18 01:28:50;;;;;;;22.23;11.30;;;4.50;99.90;;;;;;5078837;28;20443;-80
2021/12/18 01:31:35;;;;;;;15.47;11.07;;;4.50;99.90;;;;;;5063637;28;20369;-79
2021/12/18 01:34:19;;;;;;;22.07;11.20;;;4.60;99.90;;;;;;5072874;28;20368;-80
2021/12/18 01:37:04;;;;;;;24.57;13.73;;;4.80;99.90;;;;;;5079185;28;20364;-80
2021/12/18 01:39:48;;;;;;;19.93;12.40;;;4.90;99.90;;;;;;5066639;28;20393;-80
2021/12/18 01:45:59;;;;;;;27.17;12.63;;;5.00;99.90;;;;;;5058621;28;20384;-80
2021/12/18 01:52:03;;;;;;;20.93;12.77;;;5.30;99.90;;;;;;5057571;28;20878;-80
2021/12/18 01:54:47;;;;;;;18.87;11.10;;;5.10;99.90;;;;;;5057591;28;20364;-79
2021/12/18 01:57:32;;;;;;;21.70;10.50;;;5.20;99.90;;;;;;5058455;28;20388;-79
2021/12/18 02:00:22;;;;;;;20.63;12.00;;;5.00;99.90;;;;;;5057704;28;20394;-80
2021/12/18 02:03:06;;;;;;;20.60;10.93;;;5.10;99.90;;;;;;5058076;28;20448;-80
2021/12/18 02:05:52;;;;;;;27.30;12.00;;;5.20;99.90;;;;;;5057860;28;20372;-79
2021/12/18 02:08:38;;;;;;;18.57;11.23;;;5.10;99.90;;;;;;5042922;28;20420;-80
2021/12/18 02:11:31;;;;;;;20.13;12.60;;;5.20;99.90;;;;;;5058263;28;20386;-79
2021/12/18 02:19:31;;;;;;;22.27;10.77;;;5.30;99.90;;;;;;5058515;28;20368;-79
2021/12/18 02:20:25;;;;;;;17.40;9.60;;;5.40;99.90;;;;;;5057658;28;20431;-80
2021/12/18 02:23:09;;;;;;;15.20;10.17;;;5.40;99.90;;;;;;5061978;28;20404;-79
2021/12/18 02:25:54;;;;;;;15.93;9.23;;;5.50;99.90;;;;;;5074322;28;20376;-81
2021/12/18 02:28:40;;;;;;;14.90;10.63;;;5.60;99.90;;;;;;5060687;28;20437;-81
2021/12/18 02:31:25;;;;;;;16.77;9.70;;;5.60;99.90;;;;;;5058814;28;20404;-80
2021/12/18 02:34:16;;;;;;;14.30;7.90;;;5.60;99.90;;;;;;5058167;28;20918;-80
2021/12/18 02:37:05;;;;;;;16.20;9.87;;;5.60;99.90;;;;;;5043966;28;20884;-81
2021/12/18 02:40:55;;;;;;;19.60;11.47;;;5.60;99.90;;;;;;5042527;28;20360;-79
2021/12/18 02:42:53;;;;;;;16.10;10.43;;;5.50;99.90;;;;;;5058084;28;20447;-79
2021/12/18 02:45:38;;;;;;;18.23;12.40;;;5.50;99.90;;;;;;5057906;28;20416;-80
2021/12/18 02:48:22;;;;;;;16.80;9.27;;;5.50;99.90;;;;;;5042393;28;20404;-79
2021/12/18 02:51:09;;;;;;;14.77;9.97;;;5.50;99.90;;;;;;5057874;28;20456;-80
2021/12/18 02:53:54;;;;;;;17.53;11.30;;;5.50;99.90;;;;;;5057570;28;20369;-79
2021/12/18 02:56:38;;;;;;;23.67;14.43;;;5.40;99.90;;;;;;5042094;28;20419;-79
2021/12/18 02:59:24;;;;;;;21.43;10.40;;;5.50;99.90;;;;;;5057421;28;20166;-80
2021/12/18 03:02:08;;;;;;;15.00;10.07;;;5.50;99.90;;;;;;5057597;28;20449;-79
2021/12/18 03:04:57;;;;;;;16.60;10.80;;;5.50;99.90;;;;;;5043236;28;20420;-79
2021/12/18 03:07:41;;;;;;;19.77;10.10;;;5.50;99.90;;;;;;5057864;28;20441;-79
2021/12/18 03:20:11;;;;;;;13.57;10.77;;;5.50;99.90;;;;;;5056423;28;20456;-79
2021/12/18 03:22:38;;;;;;;16.80;10.20;;;5.50;99.90;;;;;;5056858;28;20791;-78
2021/12/18 03:25:26;;;;;;;19.47;11.27;;;5.20;99.90;;;;;;5057502;28;20713;-78
2021/12/18 03:28:11;;;;;;;18.23;9.13;;;5.10;99.90;;;;;;5041665;28;20496;-79
2021/12/18 03:30:55;;;;;;;19.83;12.07;;;5.20;99.90;;;;;;5056842;28;20353;-77
2021/12/18 03:33:40;;;;;;;17.67;10.43;;;5.10;99.90;;;;;;5059532;28;20417;-81
2021/12/18 03:36:26;;;;;;;13.47;9.47;;;5.00;99.90;;;;;;5061389;28;20360;-79
2021/12/18 03:39:10;;;;;;;19.30;10.10;;;5.20;99.90;;;;;;5061246;28;20402;-80
2021/12/18 03:41:55;;;;;;;9.40;6.53;;;5.40;99.90;;;;;;5060071;28;20435;-79
2021/12/18 03:44:39;;;;;;;11.63;7.47;;;5.50;99.90;;;;;;5060448;28;20402;-80
2021/12/18 03:47:24;;;;;;;15.20;8.07;;;5.50;99.90;;;;;;5044991;28;20368;-79
2021/12/18 03:50:09;;;;;;;9.13;6.70;;;5.50;99.90;;;;;;5060975;28;20401;-79
2021/12/18 03:52:54;;;;;;;12.40;8.03;;;5.50;99.90;;;;;;5060124;28;20352;-78
2021/12/18 03:55:38;;;;;;;14.47;8.57;;;5.60;99.90;;;;;;5061196;28;20404;-80
2021/12/18 03:58:22;;;;;;;21.63;9.70;;;5.60;99.90;;;;;;5059483;28;20479;-80
2021/12/18 04:01:06;;;;;;;12.07;8.60;;;5.70;99.90;;;;;;5060166;28;20368;-79
2021/12/18 04:03:50;;;;;;;15.20;9.20;;;5.70;99.90;;;;;;5061018;28;20372;-78
2021/12/18 04:06:37;;;;;;;11.73;7.77;;;5.70;99.90;;;;;;5061076;28;20411;-80
2021/12/18 04:09:21;;;;;;;11.60;7.83;;;5.70;99.90;;;;;;5059763;28;20770;-81
2021/12/18 04:12:06;;;;;;;9.40;7.77;;;5.70;99.90;;;;;;5060691;28;20380;-80
2021/12/18 04:14:50;;;;;;;7.87;5.83;;;5.70;99.90;;;;;;5060388;28;20377;-80
2021/12/18 04:17:34;;;;;;;6.23;5.63;;;5.70;99.90;;;;;;5061046;28;20389;-80
2021/12/18 04:20:18;;;;;;;5.53;5.03;;;5.50;99.90;;;;;;5060597;28;20423;-80
2021/12/18 04:23:03;;;;;;;7.63;5.23;;;5.00;99.90;;;;;;5061410;28;20485;-79
2021/12/18 04:25:47;;;;;;;6.10;4.37;;;5.20;99.90;;;;;;5059401;28;20393;-81
2021/12/18 04:28:31;;;;;;;8.73;6.10;;;5.40;99.90;;;;;;5060650;28;20474;-80
2021/12/18 04:31:15;;;;;;;6.90;5.87;;;5.50;99.90;;;;;;5060325;28;20368;-81
2021/12/18 04:34:00;;;;;;;11.97;6.70;;;5.60;99.90;;;;;;5060137;28;20373;-80
2021/12/18 04:36:45;;;;;;;7.60;6.33;;;5.60;99.90;;;;;;5060286;28;20813;-80
2021/12/18 04:39:29;;;;;;;11.03;6.73;;;5.20;99.90;;;;;;5060362;28;20376;-80
2021/12/18 04:42:13;;;;;;;9.73;6.70;;;5.10;99.90;;;;;;5060319;28;20485;-80
2021/12/18 04:44:57;;;;;;;10.87;6.90;;;5.20;99.90;;;;;;5043983;28;20373;-81
2021/12/18 04:47:41;;;;;;;15.13;7.53;;;5.30;99.90;;;;;;5070957;28;20790;-80
2021/12/18 04:50:26;;;;;;;9.20;6.80;;;5.50;99.90;;;;;;5080004;28;20932;-81
2021/12/18 04:53:10;;;;;;;8.97;6.50;;;5.50;99.90;;;;;;5079967;28;20380;-80
2021/12/18 04:55:54;;;;;;;9.53;7.47;;;5.50;99.90;;;;;;5079962;28;20411;-81
2021/12/18 04:58:38;;;;;;;8.13;6.67;;;5.50;99.90;;;;;;5080635;28;20562;-81
2021/12/18 05:01:22;;;;;;;10.83;8.07;;;5.40;99.90;;;;;;5079973;28;20519;-81
2021/12/18 05:04:10;;;;;;;10.00;6.67;;;5.10;99.90;;;;;;5079902;28;20385;-81
2021/12/18 05:06:54;;;;;;;8.33;5.83;;;5.10;99.90;;;;;;5079372;28;20743;-81
2021/12/18 05:09:40;;;;;;;8.63;5.83;;;5.20;99.90;;;;;;5079988;28;20408;-81
2021/12/18 05:12:24;;;;;;;14.57;7.77;;;5.30;99.90;;;;;;5080793;28;20355;-80
2021/12/18 05:15:08;;;;;;;13.33;6.20;;;5.40;99.90;;;;;;5079757;28;20401;-81
2021/12/18 05:17:52;;;;;;;15.33;9.17;;;5.20;99.90;;;;;;5080171;28;20384;-81
2021/12/18 05:20:37;;;;;;;8.30;6.63;;;5.40;99.90;;;;;;5079837;28;20780;-81
2021/12/18 05:23:21;;;;;;;11.53;6.90;;;5.40;99.90;;;;;;5086398;28;20364;-81
2021/12/18 05:26:05;;;;;;;9.33;6.77;;;5.40;99.90;;;;;;5071977;28;20397;-81
2021/12/18 05:28:49;;;;;;;13.30;6.17;;;5.40;99.90;;;;;;5096666;28;20419;-81
2021/12/18 05:31:34;;;;;;;7.27;6.47;;;5.50;99.90;;;;;;5080095;28;21009;-81
2021/12/18 05:34:24;;;;;;;9.30;6.63;;;5.40;99.90;;;;;;5080039;28;20383;-81
2021/12/18 05:40:18;;;;;;;9.03;6.30;;;5.50;99.90;;;;;;5077147;28;20450;-81
2021/12/18 05:43:03;;;;;;;8.60;6.23;;;5.50;99.90;;;;;;5064698;28;20360;-81
2021/12/18 05:45:47;;;;;;;12.13;6.93;;;5.50;99.90;;;;;;5059469;28;20437;-80
2021/12/18 05:48:31;;;;;;;9.70;7.50;;;5.50;99.90;;;;;;5059145;28;20441;-81
2021/12/18 05:51:15;;;;;;;11.30;8.30;;;5.50;99.90;;;;;;5059197;28;20462;-81
2021/12/18 05:53:59;;;;;;;9.30;7.33;;;5.60;99.90;;;;;;5059116;28;20713;-80
2021/12/18 05:56:44;;;;;;;13.50;8.30;;;5.60;99.90;;;;;;5058343;28;20769;-80
2021/12/18 05:59:28;;;;;;;9.60;6.97;;;5.60;99.90;;;;;;5059381;28;20440;-81
2021/12/18 06:02:12;;;;;;;11.50;7.97;;;5.60;99.90;;;;;;5029913;28;20385;-81
2021/12/18 06:04:56;;;;;;;14.17;8.27;;;5.60;99.90;;;;;;5059922;28;20369;-81
2021/12/18 06:07:57;;;;;;;13.73;7.77;;;5.60;99.90;;;;;;5059217;28;20436;-80
2021/12/18 06:10:42;;;;;;;12.60;9.10;;;5.50;99.90;;;;;;5058667;28;20360;-80
2021/12/18 06:13:26;;;;;;;11.33;8.17;;;5.50;99.90;;;;;;5058520;28;20433;-79
2021/12/18 06:16:11;;;;;;;8.87;7.73;;;5.60;99.90;;;;;;5065654;28;20942;-79
2021/12/18 06:18:55;;;;;;;8.43;7.43;;;5.60;99.90;;;;;;5068945;28;20368;-80
2021/12/18 06:21:39;;;;;;;9.77;6.33;;;5.70;99.90;;;;;;5068954;28;20508;-79
2021/12/18 06:24:26;;;;;;;8.03;6.20;;;5.60;99.90;;;;;;5068980;28;20393;-81
2021/12/18 06:27:10;;;;;;;12.30;8.73;;;5.60;99.90;;;;;;5072346;28;20381;-81
2021/12/18 06:29:54;;;;;;;12.27;8.47;;;5.50;99.90;;;;;;5070981;28;20368;-80
2021/12/18 06:32:39;;;;;;;13.37;9.03;;;5.50;99.90;;;;;;5066294;28;20360;-80
2021/12/18 06:35:23;;;;;;;12.00;9.33;;;5.50;99.90;;;;;;5058628;28;20382;-81
2021/12/18 06:38:07;;;;;;;11.30;8.53;;;5.40;99.90;;;;;;5058302;28;20502;-81
2021/12/18 06:40:52;;;;;;;12.93;9.03;;;5.40;99.90;;;;;;5066230;28;20487;-81
2021/12/18 06:43:36;;;;;;;10.03;8.13;;;5.40;99.90;;;;;;5079197;28;20363;-80
2021/12/18 06:46:20;;;;;;;17.73;11.30;;;5.40;99.90;;;;;;5080122;28;20452;-80
2021/12/18 06:49:06;;;;;;;23.03;10.77;;;5.40;99.90;;;;;;5078673;28;20442;-81
2021/12/18 06:51:50;;;;;;;13.63;9.60;;;5.50;99.90;;;;;;5079081;28;20359;-81
2021/12/18 06:54:34;;;;;;;10.83;8.00;;;5.50;99.90;;;;;;5081984;28;20498;-81
2021/12/18 06:57:22;;;;;;;15.03;8.47;;;5.60;99.90;;;;;;5066946;28;20428;-81
2021/12/18 07:00:10;;;;;;;16.93;10.30;;;5.60;99.90;;;;;;5078310;28;20364;-80
2021/12/18 07:02:54;;;;;;;16.73;8.70;;;5.60;99.90;;;;;;5078643;28;20403;-80
2021/12/18 07:05:39;;;;;;;15.50;9.70;;;5.50;99.90;;;;;;5079527;28;20448;-80
2021/12/18 07:08:23;;;;;;;17.37;10.13;;;5.50;99.90;;;;;;5078514;28;20952;-80
2021/12/18 07:11:08;;;;;;;15.43;10.73;;;5.50;99.90;;;;;;5078523;28;20389;-80
2021/12/18 07:13:52;;;;;;;13.97;9.60;;;5.50;99.90;;;;;;5079006;28;20396;-80
2021/12/18 07:16:36;;;;;;;16.57;10.40;;;5.40;99.90;;;;;;5078810;28;20399;-80
2021/12/18 07:19:20;;;;;;;16.33;9.00;;;5.40;99.90;;;;;;5078335;28;20371;-80
2021/12/18 07:22:04;;;;;;;21.27;9.20;;;5.40;99.90;;;;;;5062929;28;20416;-81
2021/12/18 07:24:49;;;;;;;15.33;9.50;;;5.40;99.90;;;;;;5076853;28;20738;-80
2021/12/18 07:27:33;;;;;;;14.13;9.70;;;5.30;99.90;;;;;;5077938;28;20393;-80
2021/12/18 07:30:17;;;;;;;17.47;9.73;;;5.40;99.90;;;;;;5077052;28;20473;-80
2021/12/18 07:33:01;;;;;;;13.40;10.17;;;5.30;99.90;;;;;;5063190;28;20355;-80
2021/12/18 07:35:45;;;;;;;14.07;9.33;;;5.30;99.90;;;;;;5048521;28;20508;-81
2021/12/18 07:38:29;;;;;;;17.43;9.97;;;5.30;99.90;;;;;;5077703;28;20435;-80
2021/12/18 07:41:13;;;;;;;14.60;10.10;;;5.30;99.90;;;;;;5077821;28;20431;-80
2021/12/18 07:43:57;;;;;;;18.50;10.80;;;5.30;99.90;;;;;;5077546;28;20392;-81
2021/12/18 07:46:42;;;;;;;16.90;10.37;;;5.30;99.90;;;;;;5078672;28;20368;-80
2021/12/18 07:49:26;;;;;;;15.77;10.53;;;5.30;99.90;;;;;;5078165;28;20466;-80
2021/12/18 07:52:12;;;;;;;13.53;10.70;;;5.40;99.90;;;;;;5076888;28;20466;-80
2021/12/18 07:54:56;;;;;;;18.87;12.03;;;5.40;99.90;;;;;;5077460;28;20493;-80
2021/12/18 07:57:44;;;;;;;18.90;12.67;;;5.40;99.90;;;;;;5076731;28;20416;-81
2021/12/18 08:00:28;;;;;;;15.27;10.10;;;5.50;99.90;;;;;;5077867;28;20399;-80
2021/12/18 08:03:12;;;;;;;16.87;12.20;;;5.50;99.90;;;;;;5076168;28;20385;-80
2021/12/18 08:05:56;;;;;;;16.10;11.73;;;5.50;99.90;;;;;;5063049;28;20857;-81
2021/12/18 08:08:40;;;;;;;20.73;12.00;;;5.50;99.90;;;;;;5077296;28;20434;-80
2021/12/18 08:11:24;;;;;;;22.67;11.50;;;5.50;99.90;;;;;;5062576;28;20406;-81
2021/12/18 08:14:08;;;;;;;13.50;8.87;;;5.50;99.90;;;;;;5076135;28;20388;-78
2021/12/18 08:16:52;;;;;;;14.47;9.00;;;5.50;99.90;;;;;;5076259;28;20389;-78
2021/12/18 08:19:36;;;;;;;13.63;9.73;;;5.50;99.90;;;;;;5079180;28;20400;-80
2021/12/18 08:22:20;;;;;;;13.90;9.23;;;5.50;99.90;;;;;;5066142;28;20425;-79
2021/12/18 08:25:06;;;;;;;17.37;11.40;;;5.40;99.90;;;;;;5081371;28;20412;-80
2021/12/18 08:27:50;;;;;;;15.93;10.80;;;5.40;99.90;;;;;;5082765;28;20422;-80
2021/12/18 08:30:37;;;;;;;17.10;9.27;;;5.30;99.90;;;;;;5073538;28;20432;-80
2021/12/18 08:33:22;;;;;;;14.10;10.17;;;5.40;99.90;;;;;;5083228;28;20901;-81
2021/12/18 08:36:06;;;;;;;15.27;8.47;;;5.40;99.90;;;;;;5053677;28;20408;-80
2021/12/18 08:38:50;;;;;;;14.07;9.50;;;5.40;99.90;;;;;;5083743;28;20410;-80
2021/12/18 08:41:34;;;;;;;11.63;9.23;;;5.40;99.90;;;;;;5072234;28;20520;-80
2021/12/18 08:44:18;;;;;;;15.50;8.23;;;5.50;99.90;;;;;;5062765;28;20408;-80
2021/12/18 08:47:03;;;;;;;13.70;9.00;;;5.40;99.90;;;;;;5060632;28;20842;-80
2021/12/18 08:49:47;;;;;;;12.50;8.00;;;5.40;99.90;;;;;;5060796;28;20365;-79
2021/12/18 08:52:31;;;;;;;15.90;9.73;;;5.40;99.90;;;;;;5031361;28;20360;-80
2021/12/18 08:55:17;;;;;;;12.37;9.27;;;5.40;99.90;;;;;;5045195;28;20386;-80
2021/12/18 08:58:01;;;;;;;20.50;11.83;;;5.40;99.90;;;;;;5060120;28;20409;-80
2021/12/18 09:00:45;;;;;;;15.27;9.47;;;5.40;99.90;;;;;;5060746;28;20395;-79
2021/12/18 09:03:29;;;;;;;13.10;10.07;;;5.40;99.90;;;;;;5045082;28;20368;-78
2021/12/18 09:06:14;;;;;;;12.43;7.10;;;5.40;99.90;;;;;;5059080;28;20357;-80
2021/12/18 09:08:58;;;;;;;10.00;8.00;;;5.40;99.90;;;;;;5060074;28;20428;-80
2021/12/18 09:11:42;;;;;;;13.37;10.93;;;5.40;99.90;;;;;;5059520;28;20365;-80
2021/12/18 09:14:26;;;;;;;10.37;7.43;;;5.50;99.90;;;;;;5044521;28;20453;-80
2021/12/18 09:17:10;;;;;;;13.80;7.97;;;5.50;99.90;;;;;;5030449;28;20377;-80
2021/12/18 09:19:54;;;;;;;13.63;7.03;;;5.50;99.90;;;;;;5058859;28;20729;-81
2021/12/18 09:22:39;;;;;;;10.20;6.90;;;5.50;99.90;;;;;;5058677;28;20399;-81
2021/12/18 09:25:23;;;;;;;13.00;9.00;;;5.60;99.90;;;;;;5060675;28;20442;-81
2021/12/18 09:28:07;;;;;;;11.77;8.27;;;5.60;99.90;;;;;;5060693;28;20840;-81
2021/12/18 09:30:51;;;;;;;13.83;9.13;;;5.70;99.90;;;;;;5058821;28;20364;-82
2021/12/18 09:33:35;;;;;;;12.33;8.03;;;5.70;99.90;;;;;;5059222;28;20360;-82
2021/12/18 09:36:19;;;;;;;12.73;8.03;;;5.70;99.90;;;;;;5060455;28;20445;-81
2021/12/18 09:39:05;;;;;;;8.20;7.07;;;5.70;99.90;;;;;;5045135;28;20365;-81
2021/12/18 09:41:50;;;;;;;8.53;7.30;;;5.70;99.90;;;;;;5073539;28;20507;-81
2021/12/18 09:44:35;;;;;;;9.77;6.20;;;5.60;99.90;;;;;;5080941;28;20507;-81
2021/12/18 09:47:20;;;;;;;14.50;8.10;;;5.70;99.90;;;;;;5080391;28;20367;-80
2021/12/18 09:50:07;;;;;;;9.20;6.10;;;5.70;99.90;;;;;;5081404;28;20371;-81
2021/12/18 09:52:52;;;;;;;11.37;7.33;;;5.80;99.90;;;;;;5083737;28;20389;-79
2021/12/18 09:55:37;;;;;;;12.00;6.53;;;5.80;99.90;;;;;;5079214;28;20359;-81
2021/12/18 09:58:21;;;;;;;13.10;8.50;;;5.80;99.90;;;;;;5079784;28;20406;-81
2021/12/18 10:01:05;;;;;;;7.50;6.40;;;5.80;99.90;;;;;;5077532;28;20389;-80
2021/12/18 10:03:53;;;;;;;11.77;7.70;;;5.70;99.90;;;;;;5078430;28;20363;-80
2021/12/18 10:06:41;;;;;;;8.93;6.97;;;5.80;99.90;;;;;;5079159;28;20372;-80
2021/12/18 10:09:34;;;;;;;15.33;7.67;;;5.80;99.90;;;;;;5079162;28;20434;-81
2021/12/18 10:12:23;;;;;;;19.27;7.20;;;5.80;99.90;;;;;;5078884;28;20403;-80
2021/12/18 10:15:16;;;;;;;8.57;5.70;;;5.70;99.90;;;;;;5079098;28;20398;-80
2021/12/18 10:18:07;;;;;;;9.93;6.77;;;5.70;99.90;;;;;;5083544;28;20391;-81
2021/12/18 10:21:11;;;;;;;9.23;5.20;;;5.70;99.90;;;;;;5096192;28;20424;-80
2021/12/18 10:24:11;;;;;;;13.20;6.37;;;5.70;99.90;;;;;;5097434;28;20421;-81
2021/12/18 10:26:56;;;;;;;7.43;5.50;;;5.70;99.90;;;;;;5088238;28;20753;-80
2021/12/18 10:29:40;;;;;;;6.60;5.53;;;5.70;99.90;;;;;;5079337;28;20481;-76
2021/12/18 10:32:24;;;;;;;9.87;6.30;;;5.70;99.90;;;;;;5077800;28;20471;-79
2021/12/18 10:35:08;;;;;;;9.03;7.00;;;5.80;99.90;;;;;;5077095;28;20486;-80
2021/12/18 10:37:52;;;;;;;10.33;6.97;;;5.80;99.90;;;;;;5078603;28;20414;-80
2021/12/18 10:40:43;;;;;;;9.30;6.37;;;5.90;99.90;;;;;;5079002;28;20494;-81
2021/12/18 10:44:01;;;;;;;7.47;5.80;;;5.90;99.90;;;;;;5077921;28;20394;-78
2021/12/18 10:46:46;;;;;;;12.43;8.87;;;6.00;99.90;;;;;;5077377;28;20798;-80
2021/12/18 10:49:39;;;;;;;9.30;7.13;;;5.80;99.90;;;;;;5062280;28;20477;-79
2021/12/18 10:52:36;;;;;;;10.10;7.73;;;5.90;99.90;;;;;;5077716;28;20359;-80
2021/12/18 10:55:34;;;;;;;5.80;5.20;;;5.90;99.90;;;;;;5078640;28;20396;-81
2021/12/18 10:58:27;;;;;;;7.93;6.60;;;5.90;99.90;;;;;;5077438;28;20406;-80
2021/12/18 11:01:13;;;;;;;10.93;6.37;;;6.00;99.90;;;;;;5047690;28;20749;-79
2021/12/18 11:03:57;;;;;;;7.83;5.63;;;6.00;99.90;;;;;;5077486;28;20428;-79
2021/12/18 11:06:41;;;;;;;8.23;5.70;;;5.90;99.90;;;;;;5078067;28;20397;-80
2021/12/18 11:09:31;;;;;;;10.80;5.70;;;5.90;99.90;;;;;;5075771;28;20444;-80
2021/12/18 11:15:20;;;;;;;5.97;5.47;;;5.90;99.90;;;;;;5077541;28;20398;-80
2021/12/18 11:18:04;;;;;;;5.43;2.70;;;5.90;99.90;;;;;;5078554;28;20512;-80
2021/12/18 11:20:51;;;;;;;4.37;3.97;;;5.90;99.90;;;;;;5061976;28;20431;-81
2021/12/18 11:23:40;;;;;;;3.47;2.90;;;5.90;99.90;;;;;;5078206;28;20367;-80
2021/12/18 11:26:30;;;;;;;5.63;4.20;;;5.90;99.90;;;;;;5064579;28;20367;-80
2021/12/18 11:29:21;;;;;;;4.03;3.73;;;5.80;99.90;;;;;;5091379;28;20434;-81
2021/12/18 11:32:09;;;;;;;5.80;4.10;;;5.80;99.90;;;;;;5082207;28;20395;-81
2021/12/18 11:34:56;;;;;;;5.67;4.60;;;5.80;99.90;;;;;;5062741;28;20391;-81
2021/12/18 11:37:47;;;;;;;4.23;3.83;;;5.80;99.90;;;;;;5062884;28;20432;-81
2021/12/18 11:40:35;;;;;;;5.20;4.17;;;5.80;99.90;;;;;;5078198;28;20442;-81
2021/12/18 11:43:38;;;;;;;6.57;4.30;;;5.60;99.90;;;;;;5077229;28;20406;-81
2021/12/18 11:46:30;;;;;;;5.57;4.00;;;5.60;99.90;;;;;;5077886;28;20368;-81
2021/12/18 11:49:14;;;;;;;6.57;5.70;;;5.60;99.90;;;;;;5048100;28;20454;-80
2021/12/18 11:52:02;;;;;;;6.50;5.73;;;5.60;99.90;;;;;;5077769;28;20375;-80
2021/12/18 11:54:56;;;;;;;6.57;5.80;;;5.50;99.90;;;;;;5081244;28;20401;-80
2021/12/18 11:57:44;;;;;;;10.10;7.00;;;5.50;99.90;;;;;;5081420;28;20451;-80
2021/12/18 12:00:43;;;;;;;6.27;4.90;;;5.60;99.90;;;;;;5067276;28;20707;-81
2021/12/18 12:03:49;;;;;;;6.47;4.63;;;5.60;99.90;;;;;;5080870;28;20909;-81
2021/12/18 12:06:37;;;;;;;5.93;4.77;;;5.40;99.90;;;;;;5081580;28;20406;-78
2021/12/18 12:09:32;;;;;;;4.47;4.07;;;5.00;99.90;;;;;;5081350;28;20418;-80
2021/12/18 12:12:17;;;;;;;4.33;3.70;;;5.10;99.90;;;;;;5049942;28;20763;-80
2021/12/18 12:15:12;;;;;;;6.20;4.73;;;5.40;99.90;;;;;;5082618;28;20359;-80
2021/12/18 12:18:05;;;;;;;7.37;5.30;;;5.50;99.90;;;;;;5080553;28;20371;-80
2021/12/18 12:20:51;;;;;;;8.10;4.73;;;5.60;99.90;;;;;;5081115;28;20364;-80
2021/12/18 12:24:02;;;;;;;8.27;6.23;;;5.60;99.90;;;;;;5081328;28;20412;-80
2021/12/18 12:26:48;;;;;;;6.77;5.53;;;5.60;99.90;;;;;;5081311;28;20413;-79
2021/12/18 12:29:49;;;;;;;11.87;8.43;;;5.70;99.90;;;;;;5081429;28;20746;-80
2021/12/18 12:32:35;;;;;;;9.90;6.40;;;5.70;99.90;;;;;;5052732;28;20390;-79
2021/12/18 12:35:19;;;;;;;10.80;7.57;;;5.80;99.90;;;;;;5082348;28;20398;-80
2021/12/18 12:38:23;;;;;;;14.63;8.30;;;5.80;99.90;;;;;;5082392;28;20376;-81
2021/12/18 12:41:25;;;;;;;14.93;9.20;;;5.80;99.90;;;;;;5062447;28;20435;-80
2021/12/18 12:44:40;;;;;;;18.70;6.20;;;5.80;99.90;;;;;;5061636;28;20418;-80
2021/12/18 12:47:27;;;;;;;7.60;5.33;;;5.80;99.90;;;;;;5061447;28;20658;-80
2021/12/18 12:50:30;;;;;;;5.57;5.00;;;5.70;99.90;;;;;;5062507;28;20456;-79
2021/12/18 12:53:14;;;;;;;9.67;7.30;;;5.60;99.90;;;;;;5012747;28;20408;-81
2021/12/18 12:56:14;;;;;;;9.77;7.23;;;5.60;99.90;;;;;;5013858;28;20362;-80
2021/12/18 12:59:26;;;;;;;7.80;6.00;;;5.50;99.90;;;;;;5026942;28;20472;-81
2021/12/18 13:02:13;;;;;;;10.50;6.30;;;5.50;99.90;;;;;;5027598;28;20560;-81
2021/12/18 13:05:04;;;;;;;11.23;7.20;;;5.50;99.90;;;;;;5025939;28;20411;-81
2021/12/18 13:07:54;;;;;;;16.20;10.10;;;5.60;99.90;;;;;;4998211;28;20399;-81
2021/12/18 13:10:41;;;;;;;8.87;5.37;;;5.50;99.90;;;;;;5025188;28;20814;-81
2021/12/18 13:13:28;;;;;;;12.03;7.00;;;5.50;99.90;;;;;;5024980;28;20391;-81
2021/12/18 13:16:17;;;;;;;14.30;9.77;;;5.50;99.90;;;;;;5024839;28;20406;-82
2021/12/18 13:19:01;;;;;;;11.40;7.90;;;5.50;99.90;;;;;;5011263;28;20281;-82
2021/12/18 13:21:45;;;;;;;8.53;5.60;;;5.50;99.90;;;;;;4996744;28;20435;-82
2021/12/18 13:24:29;;;;;;;11.87;6.90;;;5.60;99.90;;;;;;5040427;28;20392;-82
2021/12/18 13:27:13;;;;;;;8.97;5.63;;;5.60;99.90;;;;;;5065904;28;20919;-80
2021/12/18 13:30:13;;;;;;;11.73;7.20;;;5.50;99.90;;;;;;5066462;28;20797;-82
2021/12/18 13:33:00;;;;;;;7.73;6.30;;;5.50;99.90;;;;;;5067577;28;20441;-81
2021/12/18 13:35:44;;;;;;;7.50;4.80;;;5.50;99.90;;;;;;5064752;28;20400;-81
2021/12/18 13:38:44;;;;;;;9.37;6.53;;;5.40;99.90;;;;;;5064426;28;20361;-82
2021/12/18 13:41:28;;;;;;;6.90;5.33;;;5.40;99.90;;;;;;5063786;28;20443;-80
2021/12/18 13:44:14;;;;;;;8.47;6.43;;;5.20;99.90;;;;;;5046629;28;20452;-81
2021/12/18 13:47:13;;;;;;;9.60;7.57;;;4.80;99.90;;;;;;5047108;28;20368;-81
2021/12/18 13:50:05;;;;;;;9.30;6.70;;;5.00;99.90;;;;;;5049320;28;20909;-81
2021/12/18 13:52:54;;;;;;;8.77;5.80;;;5.20;99.90;;;;;;5051100;28;20356;-82
2021/12/18 13:55:43;;;;;;;13.00;6.20;;;5.20;99.90;;;;;;5066950;28;20760;-82
2021/12/18 13:58:31;;;;;;;9.30;5.70;;;5.20;99.90;;;;;;5066998;28;20526;-81
2021/12/18 14:01:18;;;;;;;11.80;8.17;;;5.30;99.90;;;;;;5058941;28;20438;-81
2021/12/18 14:04:05;;;;;;;7.33;4.70;;;5.30;99.90;;;;;;5068679;28;20716;-81
2021/12/18 14:06:50;;;;;;;7.63;5.93;;;5.40;99.90;;;;;;5066586;28;20386;-82
2021/12/18 14:09:35;;;;;;;14.13;7.27;;;5.40;99.90;;;;;;5051643;28;20472;-81
2021/12/18 14:12:22;;;;;;;9.00;5.10;;;5.40;99.90;;;;;;5066006;28;20387;-81
2021/12/18 14:15:17;;;;;;;17.03;10.33;;;5.40;99.90;;;;;;5045274;28;20456;-81
2021/12/18 14:18:01;;;;;;;15.97;8.97;;;5.30;99.90;;;;;;5064925;28;20386;-79
2021/12/18 14:20:46;;;;;;;11.77;7.10;;;5.30;99.90;;;;;;5065729;28;20360;-80
2021/12/18 14:23:35;;;;;;;9.67;5.60;;;5.30;99.90;;;;;;5065879;28;20515;-81
2021/12/18 14:26:23;;;;;;;14.40;8.67;;;5.30;99.90;;;;;;5051284;28;20447;-81
2021/12/18 14:29:20;;;;;;;11.10;6.17;;;5.30;99.90;;;;;;5022932;28;21031;-81
2021/12/18 14:32:07;;;;;;;8.63;6.20;;;5.30;99.90;;;;;;5023662;28;20456;-80
2021/12/18 14:35:03;;;;;;;9.87;6.40;;;5.30;99.90;;;;;;5071494;28;20413;-78
2021/12/18 14:37:52;;;;;;;14.60;11.00;;;5.30;99.90;;;;;;5041947;28;20395;-80
2021/12/18 14:40:36;;;;;;;14.80;9.40;;;5.30;99.90;;;;;;5069785;28;20427;-80
2021/12/18 14:43:25;;;;;;;7.17;6.37;;;5.30;99.90;;;;;;5056493;28;20380;-79
2021/12/18 14:46:24;;;;;;;14.27;9.70;;;5.30;99.90;;;;;;5024402;28;20393;-79
2021/12/18 14:49:10;;;;;;;12.70;7.73;;;5.30;99.90;;;;;;5054677;28;20757;-80
2021/12/18 14:52:10;;;;;;;11.07;6.90;;;5.30;99.90;;;;;;5054425;28;20388;-80
2021/12/18 14:54:58;;;;;;;12.80;7.53;;;5.30;99.90;;;;;;5069395;28;20393;-79
2021/12/18 14:57:52;;;;;;;16.63;8.30;;;5.30;99.90;;;;;;5055660;28;20430;-79
2021/12/18 15:00:49;;;;;;;10.50;6.60;;;5.20;99.90;;;;;;5069730;28;20417;-80
2021/12/18 15:03:38;;;;;;;9.63;6.87;;;5.20;99.90;;;;;;5067398;28;20356;-81
2021/12/18 15:06:28;;;;;;;11.93;6.50;;;5.20;99.90;;;;;;5062193;28;20392;-78
2021/12/18 15:09:14;;;;;;;8.57;5.20;;;5.10;99.90;;;;;;5054960;28;20497;-79